Aérodrome :
LOGIN :

S'inscrire | Disclaimer

   EN    FR    IT 

 










Légende :    VFR   VFR Marginal   IFR   IFR Intensif   IFR Très Intensif
Visi : 
Plafond : 
>= 8 km
>= 3000ft
5 à 8 km
1000 à 3000 ft
1500m à 5 km
500 à 1000 ft
800 à 1500m
200 à 500 ft
< 800m
< 200 ft
Symboles :   Orages  Brouillard  Fortes neiges  Fortes précipitations  Vent > 20 kt
SIGMETs :   Divers  Orages  Givrage  Turbulence  Onde Orograph.  Cendres Volcan.







- Altitude de l'aérodrome : 1411 ft
- Code IATA : SZG


LOWS - Salzburg

DERNIER METAR :
  • 180450Z 14005KT 9999 FEW060 BKN070 17/14 Q1017 NOSIG

METARs EXPIRÉS :
  • 180420Z VRB03KT 9999 FEW060 BKN070 16/14 Q1017 NOSIG
  • 180350Z 13005KT 9999 FEW060 BKN070 16/13 Q1017 NOSIG
  • 180320Z AUTO 15008KT 9999 BKN070 17/13 Q1017
  • 180250Z AUTO 14010KT 9999 FEW060 SCT070 BKN080 16/14 Q1017
  • 180220Z AUTO 15011KT 9999 FEW070 BKN080 16/14 Q1017

TAF AMD TAF LOWS
Valide du 18 à 00h jusqu'au 19 à 00h UTC


180017Z 1800/1824 VRB02KT 9999 FEW050 SCT090 TX26/1814Z TN16/1803Z
TEMPO 1800/1803 SHRA
BECMG 1807/1809 29007KT
TEMPO 1809/1816 28012KT -SHRA FEW040TCU BKN070
PROB30
TEMPO 1810/1815 32015G25KT 6000 TSRA FEW040CB BKN050
BECMG 1817/1819 15005KT
Pas de NOTAMs connus pour ce terrain.



MET'MAP, la Météo Aéronautique d'un coup d'oeil ! - Copyright ORBIFLY Décembre 2007 - Disclaimer

ORBIFLY MET'MAP TEAM :

Programmation & Développement : Alexandra Zaïnal
Conception & Développement : Baudouin d'Aumeries
Co-Programmation & Développement : Marc-Olivier Méhu
Soutien technique & logistique : Manuel Goepfert

Contact : metmap@orbifly.com




SOURCES & CREDITS :

   NOAA